sensor_id;sensor_type;location;lat;lon;timestamp;temperature;humidity
67868;SHT31;54672;46.096;14.470;2024-01-15T00:00:33;4.55;92.94
67868;SHT31;54672;46.096;14.470;2024-01-15T00:02:58;4.28;94.03
67868;SHT31;54672;46.096;14.470;2024-01-15T00:05:24;4.15;94.48
67868;SHT31;54672;46.096;14.470;2024-01-15T00:07:49;4.10;94.73
67868;SHT31;54672;46.096;14.470;2024-01-15T00:10:15;4.14;94.45
67868;SHT31;54672;46.096;14.470;2024-01-15T00:12:40;4.10;94.09
67868;SHT31;54672;46.096;14.470;2024-01-15T00:15:06;4.08;94.24
67868;SHT31;54672;46.096;14.470;2024-01-15T00:17:31;4.05;94.48
67868;SHT31;54672;46.096;14.470;2024-01-15T00:19:57;4.03;94.65
67868;SHT31;54672;46.096;14.470;2024-01-15T00:22:25;3.98;95.03
67868;SHT31;54672;46.096;14.470;2024-01-15T00:24:50;4.07;94.64
67868;SHT31;54672;46.096;14.470;2024-01-15T00:27:15;4.17;94.42
67868;SHT31;54672;46.096;14.470;2024-01-15T00:29:41;4.24;94.18
67868;SHT31;54672;46.096;14.470;2024-01-15T00:32:06;4.31;93.63
67868;SHT31;54672;46.096;14.470;2024-01-15T00:34:32;4.40;93.19
67868;SHT31;54672;46.096;14.470;2024-01-15T00:36:57;4.44;93.07
67868;SHT31;54672;46.096;14.470;2024-01-15T00:39:23;4.46;92.93
67868;SHT31;54672;46.096;14.470;2024-01-15T00:41:48;4.41;93.00
67868;SHT31;54672;46.096;14.470;2024-01-15T00:44:14;4.45;92.94
67868;SHT31;54672;46.096;14.470;2024-01-15T00:46:44;4.49;92.78
67868;SHT31;54672;46.096;14.470;2024-01-15T00:49:11;4.49;92.76
67868;SHT31;54672;46.096;14.470;2024-01-15T00:51:36;4.45;92.77
67868;SHT31;54672;46.096;14.470;2024-01-15T00:54:02;4.44;92.77
67868;SHT31;54672;46.096;14.470;2024-01-15T00:56:29;4.40;92.99
67868;SHT31;54672;46.096;14.470;2024-01-15T00:58:54;4.35;93.40
67868;SHT31;54672;46.096;14.470;2024-01-15T01:01:19;4.35;93.42
67868;SHT31;54672;46.096;14.470;2024-01-15T01:03:45;4.35;93.48
67868;SHT31;54672;46.096;14.470;2024-01-15T01:06:10;4.30;93.73
67868;SHT31;54672;46.096;14.470;2024-01-15T01:08:35;4.25;94.01
67868;SHT31;54672;46.096;14.470;2024-01-15T01:11:01;4.22;94.30
67868;SHT31;54672;46.096;14.470;2024-01-15T01:13:26;4.24;94.14
67868;SHT31;54672;46.096;14.470;2024-01-15T01:15:52;4.24;94.08
67868;SHT31;54672;46.096;14.470;2024-01-15T01:18:17;4.21;94.13
67868;SHT31;54672;46.096;14.470;2024-01-15T01:20:43;4.21;94.28
67868;SHT31;54672;46.096;14.470;2024-01-15T01:23:08;4.10;94.78
67868;SHT31;54672;46.096;14.470;2024-01-15T01:25:33;4.08;94.79
67868;SHT31;54672;46.096;14.470;2024-01-15T01:27:59;4.05;94.95
67868;SHT31;54672;46.096;14.470;2024-01-15T01:30:24;4.01;95.14
67868;SHT31;54672;46.096;14.470;2024-01-15T01:32:50;3.90;95.72
67868;SHT31;54672;46.096;14.470;2024-01-15T01:35:15;3.91;95.81
67868;SHT31;54672;46.096;14.470;2024-01-15T01:37:41;3.94;95.61
67868;SHT31;54672;46.096;14.470;2024-01-15T01:40:06;4.00;95.57
67868;SHT31;54672;46.096;14.470;2024-01-15T01:42:32;3.79;95.91
67868;SHT31;54672;46.096;14.470;2024-01-15T01:44:57;3.73;95.60
67868;SHT31;54672;46.096;14.470;2024-01-15T01:47:23;3.76;95.65
67868;SHT31;54672;46.096;14.470;2024-01-15T01:49:52;3.67;95.90
67868;SHT31;54672;46.096;14.470;2024-01-15T01:52:17;3.53;95.95
67868;SHT31;54672;46.096;14.470;2024-01-15T01:54:43;3.46;96.04
67868;SHT31;54672;46.096;14.470;2024-01-15T01:57:09;3.46;96.26
67868;SHT31;54672;46.096;14.470;2024-01-15T01:59:35;3.49;96.52
67868;SHT31;54672;46.096;14.470;2024-01-15T02:02:03;3.52;96.38
67868;SHT31;54672;46.096;14.470;2024-01-15T02:04:30;3.55;96.22
67868;SHT31;54672;46.096;14.470;2024-01-15T02:06:56;3.51;96.17
67868;SHT31;54672;46.096;14.470;2024-01-15T02:09:21;3.55;96.16
67868;SHT31;54672;46.096;14.470;2024-01-15T02:11:47;3.60;96.25
67868;SHT31;54672;46.096;14.470;2024-01-15T02:14:13;3.64;96.08
67868;SHT31;54672;46.096;14.470;2024-01-15T02:16:39;3.66;96.03
67868;SHT31;54672;46.096;14.470;2024-01-15T02:19:04;3.70;96.00
67868;SHT31;54672;46.096;14.470;2024-01-15T02:21:31;3.73;95.95
67868;SHT31;54672;46.096;14.470;2024-01-15T02:23:57;3.74;95.85
67868;SHT31;54672;46.096;14.470;2024-01-15T02:26:22;3.79;95.75
67868;SHT31;54672;46.096;14.470;2024-01-15T02:28:48;3.83;95.74
67868;SHT31;54672;46.096;14.470;2024-01-15T02:31:14;3.91;95.65
67868;SHT31;54672;46.096;14.470;2024-01-15T02:33:39;3.86;95.36
67868;SHT31;54672;46.096;14.470;2024-01-15T02:36:05;3.53;95.75
67868;SHT31;54672;46.096;14.470;2024-01-15T02:38:31;3.38;96.52
67868;SHT31;54672;46.096;14.470;2024-01-15T02:40:56;3.45;96.29
67868;SHT31;54672;46.096;14.470;2024-01-15T02:43:21;3.55;96.08
67868;SHT31;54672;46.096;14.470;2024-01-15T02:45:47;3.59;95.89
67868;SHT31;54672;46.096;14.470;2024-01-15T02:48:12;3.55;95.97
67868;SHT31;54672;46.096;14.470;2024-01-15T02:50:38;3.53;96.13
67868;SHT31;54672;46.096;14.470;2024-01-15T02:53:03;3.52;96.40
67868;SHT31;54672;46.096;14.470;2024-01-15T02:55:29;3.60;96.35
67868;SHT31;54672;46.096;14.470;2024-01-15T02:57:55;3.59;96.09
67868;SHT31;54672;46.096;14.470;2024-01-15T03:00:20;3.59;96.03
67868;SHT31;54672;46.096;14.470;2024-01-15T03:02:46;3.46;96.40
67868;SHT31;54672;46.096;14.470;2024-01-15T03:05:11;3.48;96.57
67868;SHT31;54672;46.096;14.470;2024-01-15T03:07:37;3.45;96.51
67868;SHT31;54672;46.096;14.470;2024-01-15T03:10:02;3.39;96.44
67868;SHT31;54672;46.096;14.470;2024-01-15T03:12:28;3.38;96.66
67868;SHT31;54672;46.096;14.470;2024-01-15T03:14:54;3.26;96.97
67868;SHT31;54672;46.096;14.470;2024-01-15T03:17:19;3.19;97.16
67868;SHT31;54672;46.096;14.470;2024-01-15T03:19:45;3.14;97.42
67868;SHT31;54672;46.096;14.470;2024-01-15T03:22:10;3.08;97.52
67868;SHT31;54672;46.096;14.470;2024-01-15T03:24:36;3.18;97.26
67868;SHT31;54672;46.096;14.470;2024-01-15T03:27:02;3.21;97.16
67868;SHT31;54672;46.096;14.470;2024-01-15T03:29:27;3.23;97.09
67868;SHT31;54672;46.096;14.470;2024-01-15T03:31:53;3.26;97.05
67868;SHT31;54672;46.096;14.470;2024-01-15T03:34:18;3.28;97.03
67868;SHT31;54672;46.096;14.470;2024-01-15T03:36:44;3.21;97.26
67868;SHT31;54672;46.096;14.470;2024-01-15T03:39:10;3.19;97.39
67868;SHT31;54672;46.096;14.470;2024-01-15T03:41:35;3.22;97.44
67868;SHT31;54672;46.096;14.470;2024-01-15T03:44:00;3.28;97.30
67868;SHT31;54672;46.096;14.470;2024-01-15T03:46:26;3.31;97.28
67868;SHT31;54672;46.096;14.470;2024-01-15T03:48:52;3.35;97.21
67868;SHT31;54672;46.096;14.470;2024-01-15T03:51:17;3.38;97.18
67868;SHT31;54672;46.096;14.470;2024-01-15T03:53:43;3.45;97.26
67868;SHT31;54672;46.096;14.470;2024-01-15T03:56:08;3.51;97.21
67868;SHT31;54672;46.096;14.470;2024-01-15T03:58:34;3.53;96.92
67868;SHT31;54672;46.096;14.470;2024-01-15T04:00:59;3.55;96.88
67868;SHT31;54672;46.096;14.470;2024-01-15T04:03:24;3.53;96.83
67868;SHT31;54672;46.096;14.470;2024-01-15T04:05:50;3.52;97.00
67868;SHT31;54672;46.096;14.470;2024-01-15T04:08:15;3.55;97.18
67868;SHT31;54672;46.096;14.470;2024-01-15T04:10:41;3.53;97.17
67868;SHT31;54672;46.096;14.470;2024-01-15T04:13:06;3.51;97.33
67868;SHT31;54672;46.096;14.470;2024-01-15T04:15:32;3.36;97.52
67868;SHT31;54672;46.096;14.470;2024-01-15T04:17:57;3.28;97.54
67868;SHT31;54672;46.096;14.470;2024-01-15T04:20:23;3.29;97.71
67868;SHT31;54672;46.096;14.470;2024-01-15T04:22:48;3.21;97.90
67868;SHT31;54672;46.096;14.470;2024-01-15T04:25:13;3.18;97.94
67868;SHT31;54672;46.096;14.470;2024-01-15T04:27:39;3.12;98.10
67868;SHT31;54672;46.096;14.470;2024-01-15T04:30:05;3.19;98.07
67868;SHT31;54672;46.096;14.470;2024-01-15T04:32:30;3.21;98.15
67868;SHT31;54672;46.096;14.470;2024-01-15T04:34:56;3.22;98.06
67868;SHT31;54672;46.096;14.470;2024-01-15T04:37:21;3.23;98.08
67868;SHT31;54672;46.096;14.470;2024-01-15T04:39:46;3.25;98.12
67868;SHT31;54672;46.096;14.470;2024-01-15T04:42:12;3.31;98.26
67868;SHT31;54672;46.096;14.470;2024-01-15T04:44:37;3.31;98.20
67868;SHT31;54672;46.096;14.470;2024-01-15T04:47:03;3.39;98.09
67868;SHT31;54672;46.096;14.470;2024-01-15T04:49:28;3.43;97.98
67868;SHT31;54672;46.096;14.470;2024-01-15T04:51:55;3.46;97.74
67868;SHT31;54672;46.096;14.470;2024-01-15T04:54:20;3.33;98.13
67868;SHT31;54672;46.096;14.470;2024-01-15T04:56:46;3.32;98.28
67868;SHT31;54672;46.096;14.470;2024-01-15T04:59:11;3.33;98.22
67868;SHT31;54672;46.096;14.470;2024-01-15T05:01:37;3.23;98.46
67868;SHT31;54672;46.096;14.470;2024-01-15T05:04:03;3.26;98.41
67868;SHT31;54672;46.096;14.470;2024-01-15T05:06:28;3.29;98.35
67868;SHT31;54672;46.096;14.470;2024-01-15T05:08:54;3.28;98.33
67868;SHT31;54672;46.096;14.470;2024-01-15T05:11:20;3.28;98.29
67868;SHT31;54672;46.096;14.470;2024-01-15T05:13:45;3.31;98.25
67868;SHT31;54672;46.096;14.470;2024-01-15T05:16:11;3.29;98.46
67868;SHT31;54672;46.096;14.470;2024-01-15T05:18:36;3.33;98.35
67868;SHT31;54672;46.096;14.470;2024-01-15T05:21:05;3.45;98.25
67868;SHT31;54672;46.096;14.470;2024-01-15T05:23:34;3.49;97.45
67868;SHT31;54672;46.096;14.470;2024-01-15T05:25:59;3.58;97.02
67868;SHT31;54672;46.096;14.470;2024-01-15T05:28:25;3.62;96.84
67868;SHT31;54672;46.096;14.470;2024-01-15T05:30:50;3.63;96.49
67868;SHT31;54672;46.096;14.470;2024-01-15T05:33:16;3.51;96.88
67868;SHT31;54672;46.096;14.470;2024-01-15T05:35:42;3.46;97.37
67868;SHT31;54672;46.096;14.470;2024-01-15T05:38:07;3.43;97.78
67868;SHT31;54672;46.096;14.470;2024-01-15T05:40:33;3.43;98.21
67868;SHT31;54672;46.096;14.470;2024-01-15T05:42:58;3.49;98.03
67868;SHT31;54672;46.096;14.470;2024-01-15T05:45:26;3.55;98.05
67868;SHT31;54672;46.096;14.470;2024-01-15T05:47:51;3.56;98.13
67868;SHT31;54672;46.096;14.470;2024-01-15T05:50:17;3.60;98.10
67868;SHT31;54672;46.096;14.470;2024-01-15T05:52:43;3.64;97.96
67868;SHT31;54672;46.096;14.470;2024-01-15T05:55:08;3.69;97.89
67868;SHT31;54672;46.096;14.470;2024-01-15T05:57:35;3.69;98.03
67868;SHT31;54672;46.096;14.470;2024-01-15T06:00:00;3.63;98.24
67868;SHT31;54672;46.096;14.470;2024-01-15T06:02:26;3.59;98.40
67868;SHT31;54672;46.096;14.470;2024-01-15T06:04:51;3.64;98.51
67868;SHT31;54672;46.096;14.470;2024-01-15T06:07:17;3.66;98.50
67868;SHT31;54672;46.096;14.470;2024-01-15T06:09:42;3.67;98.47
67868;SHT31;54672;46.096;14.470;2024-01-15T06:12:08;3.64;98.72
67868;SHT31;54672;46.096;14.470;2024-01-15T06:14:33;3.69;98.67
67868;SHT31;54672;46.096;14.470;2024-01-15T06:16:59;3.72;98.71
67868;SHT31;54672;46.096;14.470;2024-01-15T06:19:24;3.74;98.62
67868;SHT31;54672;46.096;14.470;2024-01-15T06:21:50;3.73;98.59
67868;SHT31;54672;46.096;14.470;2024-01-15T06:24:15;3.76;98.58
67868;SHT31;54672;46.096;14.470;2024-01-15T06:26:43;3.82;98.50
67868;SHT31;54672;46.096;14.470;2024-01-15T06:29:08;3.82;98.47
67868;SHT31;54672;46.096;14.470;2024-01-15T06:31:34;3.86;98.44
67868;SHT31;54672;46.096;14.470;2024-01-15T06:33:59;3.87;98.37
67868;SHT31;54672;46.096;14.470;2024-01-15T06:36:24;3.89;98.33
67868;SHT31;54672;46.096;14.470;2024-01-15T06:38:50;3.95;98.18
67868;SHT31;54672;46.096;14.470;2024-01-15T06:41:15;3.97;98.00
67868;SHT31;54672;46.096;14.470;2024-01-15T06:43:41;3.97;98.01
67868;SHT31;54672;46.096;14.470;2024-01-15T06:46:06;3.97;98.02
67868;SHT31;54672;46.096;14.470;2024-01-15T06:48:31;4.01;97.92
67868;SHT31;54672;46.096;14.470;2024-01-15T06:50:57;4.00;97.90
67868;SHT31;54672;46.096;14.470;2024-01-15T06:53:22;3.95;97.93
67868;SHT31;54672;46.096;14.470;2024-01-15T06:55:48;3.77;98.38
67868;SHT31;54672;46.096;14.470;2024-01-15T06:58:14;3.59;98.60
67868;SHT31;54672;46.096;14.470;2024-01-15T07:00:40;3.45;98.88
67868;SHT31;54672;46.096;14.470;2024-01-15T07:03:06;3.29;99.13
67868;SHT31;54672;46.096;14.470;2024-01-15T07:05:31;3.35;99.16
67868;SHT31;54672;46.096;14.470;2024-01-15T07:07:57;3.45;98.88
67868;SHT31;54672;46.096;14.470;2024-01-15T07:10:22;3.52;98.54
67868;SHT31;54672;46.096;14.470;2024-01-15T07:12:48;3.62;98.23
67868;SHT31;54672;46.096;14.470;2024-01-15T07:15:14;3.56;97.81
67868;SHT31;54672;46.096;14.470;2024-01-15T07:17:40;3.36;98.20
67868;SHT31;54672;46.096;14.470;2024-01-15T07:20:09;3.42;98.59
67868;SHT31;54672;46.096;14.470;2024-01-15T07:22:37;3.48;98.47
67868;SHT31;54672;46.096;14.470;2024-01-15T07:25:03;3.46;98.18
67868;SHT31;54672;46.096;14.470;2024-01-15T07:27:30;3.25;98.86
67868;SHT31;54672;46.096;14.470;2024-01-15T07:29:56;3.19;99.22
67868;SHT31;54672;46.096;14.470;2024-01-15T07:32:22;3.23;99.03
67868;SHT31;54672;46.096;14.470;2024-01-15T07:34:47;3.31;99.12
67868;SHT31;54672;46.096;14.470;2024-01-15T07:37:13;3.38;98.93
67868;SHT31;54672;46.096;14.470;2024-01-15T07:39:39;3.52;98.56
67868;SHT31;54672;46.096;14.470;2024-01-15T07:42:05;3.39;98.48
67868;SHT31;54672;46.096;14.470;2024-01-15T07:44:30;3.40;98.79
67868;SHT31;54672;46.096;14.470;2024-01-15T07:46:55;3.48;97.67
67868;SHT31;54672;46.096;14.470;2024-01-15T07:49:21;3.58;97.01
67868;SHT31;54672;46.096;14.470;2024-01-15T07:51:48;3.62;96.50
67868;SHT31;54672;46.096;14.470;2024-01-15T07:54:14;3.58;96.24
67868;SHT31;54672;46.096;14.470;2024-01-15T07:57:00;3.66;95.99
67868;SHT31;54672;46.096;14.470;2024-01-15T07:59:26;3.67;95.74
67868;SHT31;54672;46.096;14.470;2024-01-15T08:01:52;3.70;95.61
67868;SHT31;54672;46.096;14.470;2024-01-15T08:04:18;3.46;96.10
67868;SHT31;54672;46.096;14.470;2024-01-15T08:06:44;3.46;96.47
67868;SHT31;54672;46.096;14.470;2024-01-15T08:09:10;3.52;96.53
67868;SHT31;54672;46.096;14.470;2024-01-15T08:11:39;3.39;96.88
67868;SHT31;54672;46.096;14.470;2024-01-15T08:14:05;3.52;96.66
67868;SHT31;54672;46.096;14.470;2024-01-15T08:16:30;3.56;96.32
67868;SHT31;54672;46.096;14.470;2024-01-15T08:18:56;3.56;96.05
67868;SHT31;54672;46.096;14.470;2024-01-15T08:21:21;3.62;95.52
67868;SHT31;54672;46.096;14.470;2024-01-15T08:23:47;3.53;94.87
67868;SHT31;54672;46.096;14.470;2024-01-15T08:26:12;3.60;94.82
67868;SHT31;54672;46.096;14.470;2024-01-15T08:28:38;3.69;94.54
67868;SHT31;54672;46.096;14.470;2024-01-15T08:31:03;3.73;94.26
67868;SHT31;54672;46.096;14.470;2024-01-15T08:33:29;3.87;93.92
67868;SHT31;54672;46.096;14.470;2024-01-15T08:35:54;3.93;93.30
67868;SHT31;54672;46.096;14.470;2024-01-15T08:38:20;3.93;92.83
67868;SHT31;54672;46.096;14.470;2024-01-15T08:40:45;3.98;92.24
67868;SHT31;54672;46.096;14.470;2024-01-15T08:43:11;3.98;91.45
67868;SHT31;54672;46.096;14.470;2024-01-15T08:45:36;4.03;91.15
67868;SHT31;54672;46.096;14.470;2024-01-15T08:48:02;4.03;90.57
67868;SHT31;54672;46.096;14.470;2024-01-15T08:50:29;4.11;89.64
67868;SHT31;54672;46.096;14.470;2024-01-15T08:52:54;4.17;89.15
67868;SHT31;54672;46.096;14.470;2024-01-15T08:55:20;4.30;88.86
67868;SHT31;54672;46.096;14.470;2024-01-15T08:57:48;4.37;88.39
67868;SHT31;54672;46.096;14.470;2024-01-15T09:00:13;4.35;88.27
67868;SHT31;54672;46.096;14.470;2024-01-15T09:02:39;4.31;88.79
67868;SHT31;54672;46.096;14.470;2024-01-15T09:05:04;4.25;89.12
67868;SHT31;54672;46.096;14.470;2024-01-15T09:07:30;4.30;88.95
67868;SHT31;54672;46.096;14.470;2024-01-15T09:09:55;4.21;88.81
67868;SHT31;54672;46.096;14.470;2024-01-15T09:12:21;4.15;89.35
67868;SHT31;54672;46.096;14.470;2024-01-15T09:14:47;4.32;89.57
67868;SHT31;54672;46.096;14.470;2024-01-15T09:17:13;4.56;88.78
67868;SHT31;54672;46.096;14.470;2024-01-15T09:19:38;4.69;88.16
67868;SHT31;54672;46.096;14.470;2024-01-15T09:22:08;4.86;87.77
67868;SHT31;54672;46.096;14.470;2024-01-15T09:24:33;5.01;87.34
67868;SHT31;54672;46.096;14.470;2024-01-15T09:26:58;5.26;86.92
67868;SHT31;54672;46.096;14.470;2024-01-15T09:29:24;5.59;86.39
67868;SHT31;54672;46.096;14.470;2024-01-15T09:31:50;5.72;85.06
67868;SHT31;54672;46.096;14.470;2024-01-15T09:34:16;6.03;84.38
67868;SHT31;54672;46.096;14.470;2024-01-15T09:36:42;6.40;83.27
67868;SHT31;54672;46.096;14.470;2024-01-15T09:39:08;6.57;82.55
67868;SHT31;54672;46.096;14.470;2024-01-15T09:41:37;6.57;82.48
67868;SHT31;54672;46.096;14.470;2024-01-15T09:44:04;6.64;82.62
67868;SHT31;54672;46.096;14.470;2024-01-15T09:46:31;6.87;82.34
67868;SHT31;54672;46.096;14.470;2024-01-15T09:48:57;6.99;81.93
67868;SHT31;54672;46.096;14.470;2024-01-15T09:51:24;7.02;81.79
67868;SHT31;54672;46.096;14.470;2024-01-15T09:53:50;6.91;81.88
67868;SHT31;54672;46.096;14.470;2024-01-15T09:56:16;6.99;81.87
67868;SHT31;54672;46.096;14.470;2024-01-15T09:58:42;6.88;81.97
67868;SHT31;54672;46.096;14.470;2024-01-15T10:01:08;6.67;82.17
67868;SHT31;54672;46.096;14.470;2024-01-15T10:03:34;6.54;82.85
67868;SHT31;54672;46.096;14.470;2024-01-15T10:05:59;6.48;83.11
67868;SHT31;54672;46.096;14.470;2024-01-15T10:08:25;6.81;82.40
67868;SHT31;54672;46.096;14.470;2024-01-15T10:10:51;6.47;83.34
67868;SHT31;54672;46.096;14.470;2024-01-15T10:13:17;6.81;82.26
67868;SHT31;54672;46.096;14.470;2024-01-15T10:15:45;6.96;81.94
67868;SHT31;54672;46.096;14.470;2024-01-15T10:18:12;6.92;81.34
67868;SHT31;54672;46.096;14.470;2024-01-15T10:20:37;6.70;81.94
67868;SHT31;54672;46.096;14.470;2024-01-15T10:23:03;6.41;82.69
67868;SHT31;54672;46.096;14.470;2024-01-15T10:25:29;6.74;82.78
67868;SHT31;54672;46.096;14.470;2024-01-15T10:28:03;6.61;82.84
67868;SHT31;54672;46.096;14.470;2024-01-15T10:30:29;6.26;83.47
67868;SHT31;54672;46.096;14.470;2024-01-15T10:33:03;6.63;82.64
67868;SHT31;54672;46.096;14.470;2024-01-15T10:35:33;6.91;81.85
67868;SHT31;54672;46.096;14.470;2024-01-15T10:38:00;6.98;81.29
67868;SHT31;54672;46.096;14.470;2024-01-15T10:40:25;6.77;81.06
67868;SHT31;54672;46.096;14.470;2024-01-15T10:42:51;6.48;82.57
67868;SHT31;54672;46.096;14.470;2024-01-15T10:45:17;6.19;83.83
67868;SHT31;54672;46.096;14.470;2024-01-15T10:47:43;6.37;83.35
67868;SHT31;54672;46.096;14.470;2024-01-15T10:50:09;6.41;82.84
67868;SHT31;54672;46.096;14.470;2024-01-15T10:52:39;6.44;83.13
67868;SHT31;54672;46.096;14.470;2024-01-15T10:55:07;6.48;83.25
67868;SHT31;54672;46.096;14.470;2024-01-15T10:57:34;6.24;83.71
67868;SHT31;54672;46.096;14.470;2024-01-15T11:00:00;6.10;83.83
67868;SHT31;54672;46.096;14.470;2024-01-15T11:02:29;6.09;84.04
67868;SHT31;54672;46.096;14.470;2024-01-15T11:04:54;5.92;84.53
67868;SHT31;54672;46.096;14.470;2024-01-15T11:07:22;5.95;84.52
67868;SHT31;54672;46.096;14.470;2024-01-15T11:09:50;6.05;84.53
67868;SHT31;54672;46.096;14.470;2024-01-15T11:12:16;5.81;85.06
67868;SHT31;54672;46.096;14.470;2024-01-15T11:14:47;5.68;84.99
67868;SHT31;54672;46.096;14.470;2024-01-15T11:17:13;5.81;84.85
67868;SHT31;54672;46.096;14.470;2024-01-15T11:19:42;5.76;85.02
67868;SHT31;54672;46.096;14.470;2024-01-15T11:22:09;5.74;84.91
67868;SHT31;54672;46.096;14.470;2024-01-15T11:24:41;5.79;85.08
67868;SHT31;54672;46.096;14.470;2024-01-15T11:27:09;5.78;84.98
67868;SHT31;54672;46.096;14.470;2024-01-15T11:29:36;5.88;85.38
67868;SHT31;54672;46.096;14.470;2024-01-15T11:32:11;5.91;84.67
67868;SHT31;54672;46.096;14.470;2024-01-15T11:35:01;6.13;84.88
67868;SHT31;54672;46.096;14.470;2024-01-15T11:37:29;6.40;84.04
67868;SHT31;54672;46.096;14.470;2024-01-15T11:40:01;6.60;83.64
67868;SHT31;54672;46.096;14.470;2024-01-15T11:42:29;6.45;83.17
67868;SHT31;54672;46.096;14.470;2024-01-15T11:44:55;6.36;83.46
67868;SHT31;54672;46.096;14.470;2024-01-15T11:47:42;6.61;83.45
67868;SHT31;54672;46.096;14.470;2024-01-15T11:50:13;6.65;83.09
67868;SHT31;54672;46.096;14.470;2024-01-15T11:52:40;6.88;82.31
67868;SHT31;54672;46.096;14.470;2024-01-15T11:55:22;6.95;81.95
67868;SHT31;54672;46.096;14.470;2024-01-15T11:57:52;7.14;81.32
67868;SHT31;54672;46.096;14.470;2024-01-15T12:00:20;7.26;80.67
67868;SHT31;54672;46.096;14.470;2024-01-15T12:02:47;7.04;81.10
67868;SHT31;54672;46.096;14.470;2024-01-15T12:05:15;6.85;82.22
67868;SHT31;54672;46.096;14.470;2024-01-15T12:07:44;6.91;82.31
67868;SHT31;54672;46.096;14.470;2024-01-15T12:10:14;6.94;82.25
67868;SHT31;54672;46.096;14.470;2024-01-15T12:13:12;7.15;81.77
67868;SHT31;54672;46.096;14.470;2024-01-15T12:15:38;7.14;81.96
67868;SHT31;54672;46.096;14.470;2024-01-15T12:18:07;7.20;81.80
67868;SHT31;54672;46.096;14.470;2024-01-15T12:20:33;7.29;81.79
67868;SHT31;54672;46.096;14.470;2024-01-15T12:23:00;7.35;81.25
67868;SHT31;54672;46.096;14.470;2024-01-15T12:25:26;7.32;81.34
67868;SHT31;54672;46.096;14.470;2024-01-15T12:27:53;7.16;81.71
67868;SHT31;54672;46.096;14.470;2024-01-15T12:30:19;7.23;81.24
67868;SHT31;54672;46.096;14.470;2024-01-15T12:32:45;7.18;81.51
67868;SHT31;54672;46.096;14.470;2024-01-15T12:35:12;7.15;81.68
67868;SHT31;54672;46.096;14.470;2024-01-15T12:37:42;7.01;82.19
67868;SHT31;54672;46.096;14.470;2024-01-15T12:40:08;7.08;82.37
67868;SHT31;54672;46.096;14.470;2024-01-15T12:42:37;6.92;82.78
67868;SHT31;54672;46.096;14.470;2024-01-15T12:45:05;6.96;82.67
67868;SHT31;54672;46.096;14.470;2024-01-15T12:47:31;6.91;83.16
67868;SHT31;54672;46.096;14.470;2024-01-15T12:49:57;6.94;83.24
67868;SHT31;54672;46.096;14.470;2024-01-15T12:52:26;6.85;83.83
67868;SHT31;54672;46.096;14.470;2024-01-15T12:54:52;6.94;85.06
67868;SHT31;54672;46.096;14.470;2024-01-15T12:57:17;6.94;84.72
67868;SHT31;54672;46.096;14.470;2024-01-15T12:59:46;6.85;85.99
67868;SHT31;54672;46.096;14.470;2024-01-15T13:02:15;6.81;86.50
67868;SHT31;54672;46.096;14.470;2024-01-15T13:04:40;6.74;86.73
67868;SHT31;54672;46.096;14.470;2024-01-15T13:07:06;6.71;86.94
67868;SHT31;54672;46.096;14.470;2024-01-15T13:09:32;6.61;87.52
67868;SHT31;54672;46.096;14.470;2024-01-15T13:11:58;6.50;87.97
67868;SHT31;54672;46.096;14.470;2024-01-15T13:14:23;6.40;88.56
67868;SHT31;54672;46.096;14.470;2024-01-15T13:16:49;6.27;89.19
67868;SHT31;54672;46.096;14.470;2024-01-15T13:19:14;6.23;89.36
67868;SHT31;54672;46.096;14.470;2024-01-15T13:21:40;6.26;89.30
67868;SHT31;54672;46.096;14.470;2024-01-15T13:24:06;6.19;89.48
67868;SHT31;54672;46.096;14.470;2024-01-15T13:26:32;6.16;89.85
67868;SHT31;54672;46.096;14.470;2024-01-15T13:29:02;6.13;90.04
67868;SHT31;54672;46.096;14.470;2024-01-15T13:31:29;6.17;89.89
67868;SHT31;54672;46.096;14.470;2024-01-15T13:33:54;6.10;90.04
67868;SHT31;54672;46.096;14.470;2024-01-15T13:36:21;6.02;90.21
67868;SHT31;54672;46.096;14.470;2024-01-15T13:38:51;5.96;90.68
67868;SHT31;54672;46.096;14.470;2024-01-15T13:41:18;5.89;90.92
67868;SHT31;54672;46.096;14.470;2024-01-15T13:43:46;5.89;90.66
67868;SHT31;54672;46.096;14.470;2024-01-15T13:46:11;5.92;90.80
67868;SHT31;54672;46.096;14.470;2024-01-15T13:48:37;5.95;90.46
67868;SHT31;54672;46.096;14.470;2024-01-15T13:51:02;6.02;89.91
67868;SHT31;54672;46.096;14.470;2024-01-15T13:53:28;5.99;89.82
67868;SHT31;54672;46.096;14.470;2024-01-15T13:55:53;5.95;90.15
67868;SHT31;54672;46.096;14.470;2024-01-15T13:58:18;6.01;89.79
67868;SHT31;54672;46.096;14.470;2024-01-15T14:00:44;6.03;89.62
67868;SHT31;54672;46.096;14.470;2024-01-15T14:03:09;5.99;89.49
67868;SHT31;54672;46.096;14.470;2024-01-15T14:05:35;6.01;89.39
67868;SHT31;54672;46.096;14.470;2024-01-15T14:08:00;5.96;89.55
67868;SHT31;54672;46.096;14.470;2024-01-15T14:10:25;5.95;89.59
67868;SHT31;54672;46.096;14.470;2024-01-15T14:12:51;5.93;89.60
67868;SHT31;54672;46.096;14.470;2024-01-15T14:15:16;5.89;89.64
67868;SHT31;54672;46.096;14.470;2024-01-15T14:17:42;5.84;89.83
67868;SHT31;54672;46.096;14.470;2024-01-15T14:20:08;5.79;89.94
67868;SHT31;54672;46.096;14.470;2024-01-15T14:22:34;5.82;89.94
67868;SHT31;54672;46.096;14.470;2024-01-15T14:25:00;5.85;89.79
67868;SHT31;54672;46.096;14.470;2024-01-15T14:27:26;5.76;90.11
67868;SHT31;54672;46.096;14.470;2024-01-15T14:29:51;5.78;90.22
67868;SHT31;54672;46.096;14.470;2024-01-15T14:32:17;5.66;90.66
67868;SHT31;54672;46.096;14.470;2024-01-15T14:34:42;5.65;90.58
67868;SHT31;54672;46.096;14.470;2024-01-15T14:37:08;5.62;90.52
67868;SHT31;54672;46.096;14.470;2024-01-15T14:39:34;5.61;90.42
67868;SHT31;54672;46.096;14.470;2024-01-15T14:42:00;5.65;90.34
67868;SHT31;54672;46.096;14.470;2024-01-15T14:44:26;5.64;90.33
67868;SHT31;54672;46.096;14.470;2024-01-15T14:46:53;5.68;90.44
67868;SHT31;54672;46.096;14.470;2024-01-15T14:49:20;5.69;90.65
67868;SHT31;54672;46.096;14.470;2024-01-15T14:51:45;5.72;90.43
67868;SHT31;54672;46.096;14.470;2024-01-15T14:54:11;5.74;90.40
67868;SHT31;54672;46.096;14.470;2024-01-15T14:56:36;5.74;90.47
67868;SHT31;54672;46.096;14.470;2024-01-15T14:59:01;5.72;90.77
67868;SHT31;54672;46.096;14.470;2024-01-15T15:01:28;5.72;90.72
67868;SHT31;54672;46.096;14.470;2024-01-15T15:03:53;5.74;90.73
67868;SHT31;54672;46.096;14.470;2024-01-15T15:06:18;5.72;90.70
67868;SHT31;54672;46.096;14.470;2024-01-15T15:08:45;5.69;90.56
67868;SHT31;54672;46.096;14.470;2024-01-15T15:11:11;5.71;90.42
67868;SHT31;54672;46.096;14.470;2024-01-15T15:13:36;5.72;90.39
67868;SHT31;54672;46.096;14.470;2024-01-15T15:16:02;5.71;90.52
67868;SHT31;54672;46.096;14.470;2024-01-15T15:18:27;5.66;90.72
67868;SHT31;54672;46.096;14.470;2024-01-15T15:20:55;5.68;90.63
67868;SHT31;54672;46.096;14.470;2024-01-15T15:23:20;5.69;90.67